createdAt,value
2022-07-29T00:00:52.160Z,1.20
2022-07-29T00:03:18.639Z,1.35
2022-07-29T00:05:45.406Z,1.30
2022-07-29T00:08:12.733Z,1.42
2022-07-29T00:10:39.526Z,1.10
2022-07-29T00:13:06.098Z,1.15
2022-07-29T00:15:32.577Z,1.38
2022-07-29T00:17:59.061Z,1.23
2022-07-29T00:20:25.518Z,1.58
2022-07-29T00:22:52.056Z,1.50
2022-07-29T00:25:18.552Z,1.40
2022-07-29T00:27:47.096Z,1.52
2022-07-29T00:30:13.649Z,1.27
2022-07-29T00:32:40.263Z,1.40
2022-07-29T00:35:26.878Z,1.30
2022-07-29T00:37:53.428Z,1.40
2022-07-29T00:40:19.870Z,1.10
2022-07-29T00:42:50.880Z,1.13
2022-07-29T00:45:17.667Z,1.10
2022-07-29T00:47:44.345Z,1.38
2022-07-29T00:50:12.704Z,1.08
2022-07-29T00:52:39.978Z,1.17
2022-07-29T00:55:08.891Z,1.10
2022-07-29T00:57:36.127Z,0.93
2022-07-29T01:00:04.525Z,1.45
2022-07-29T01:02:31.046Z,1.02
2022-07-29T01:04:58.548Z,1.00
2022-07-29T01:07:26.510Z,1.17
2022-07-29T01:09:54.452Z,1.40
2022-07-29T01:12:29.493Z,1.20
2022-07-29T01:14:56.282Z,1.08
2022-07-29T01:17:32.275Z,1.92
2022-07-29T01:19:58.686Z,1.83
2022-07-29T01:22:34.295Z,1.27
2022-07-29T01:25:07.178Z,1.40
2022-07-29T01:27:45.975Z,1.17
2022-07-29T01:30:12.586Z,1.70
2022-07-29T01:32:43.661Z,2.15
2022-07-29T01:35:16.495Z,1.80
2022-07-29T01:37:58.185Z,1.90
2022-07-29T01:40:41.659Z,1.80
2022-07-29T01:43:12.181Z,1.65
2022-07-29T01:45:38.673Z,1.83
2022-07-29T01:48:17.437Z,2.38
2022-07-29T01:50:48.724Z,2.00
2022-07-29T01:53:17.414Z,1.77
2022-07-29T01:55:46.196Z,1.80
2022-07-29T01:58:14.058Z,1.98
2022-07-29T02:00:43.877Z,2.20
2022-07-29T02:03:11.887Z,2.03
2022-07-29T02:05:39.900Z,2.35
2022-07-29T02:08:06.950Z,2.40
2022-07-29T02:10:34.882Z,2.95
2022-07-29T02:13:03.020Z,2.80
2022-07-29T02:15:31.610Z,2.85
2022-07-29T02:18:02.884Z,2.58
2022-07-29T02:20:29.946Z,2.70
2022-07-29T02:22:56.721Z,3.35
2022-07-29T02:25:24.474Z,3.20
2022-07-29T02:27:52.291Z,2.70
2022-07-29T02:30:19.210Z,2.83
2022-07-29T02:32:46.971Z,2.90
2022-07-29T02:35:14.389Z,2.63
2022-07-29T02:37:41.840Z,2.50
2022-07-29T02:40:10.077Z,2.75
2022-07-29T02:42:37.342Z,2.58
2022-07-29T02:45:04.556Z,2.60
2022-07-29T02:47:49.354Z,2.50
2022-07-29T02:50:21.221Z,3.03
2022-07-29T02:53:04.231Z,2.70
2022-07-29T02:55:32.961Z,2.92
2022-07-29T02:58:04.235Z,2.92
2022-07-29T03:00:32.117Z,3.17
2022-07-29T03:03:00.306Z,3.10
2022-07-29T03:05:26.955Z,3.28
2022-07-29T03:08:01.269Z,3.25
2022-07-29T03:10:27.950Z,2.97
2022-07-29T03:12:55.686Z,3.28
2022-07-29T03:15:22.707Z,3.45
2022-07-29T03:17:52.348Z,3.75
2022-07-29T03:20:18.969Z,3.60
2022-07-29T03:22:47.914Z,3.20
2022-07-29T03:25:15.407Z,4.05
2022-07-29T03:27:42.120Z,3.95
2022-07-29T03:30:09.015Z,3.30
2022-07-29T03:32:36.030Z,4.28
2022-07-29T03:35:03.051Z,3.92
2022-07-29T03:37:31.422Z,3.80
2022-07-29T03:39:58.917Z,4.93
2022-07-29T03:42:28.903Z,5.07
2022-07-29T03:45:01.469Z,4.22
2022-07-29T03:47:49.559Z,4.20
2022-07-29T03:50:16.210Z,4.55
2022-07-29T03:52:45.501Z,4.28
2022-07-29T03:55:13.197Z,3.70
2022-07-29T03:57:40.515Z,3.50
2022-07-29T04:00:07.500Z,3.58
2022-07-29T04:02:34.025Z,3.85
2022-07-29T04:05:00.482Z,4.53
2022-07-29T04:07:26.889Z,3.85
2022-07-29T04:09:53.277Z,4.60
2022-07-29T04:12:19.709Z,5.10
2022-07-29T04:14:46.197Z,4.15
2022-07-29T04:17:12.576Z,4.13
2022-07-29T04:19:39.058Z,4.00
2022-07-29T04:22:05.457Z,4.03
2022-07-29T04:24:31.969Z,3.88
2022-07-29T04:26:58.433Z,3.85
2022-07-29T04:29:24.888Z,3.92
2022-07-29T04:31:51.344Z,3.83
2022-07-29T04:34:18.795Z,5.57
2022-07-29T04:36:46.080Z,4.57
2022-07-29T04:39:12.612Z,4.45
2022-07-29T04:41:39.130Z,4.40
2022-07-29T04:44:06.994Z,3.40
2022-07-29T04:46:34.025Z,3.90
2022-07-29T04:49:00.623Z,4.00
2022-07-29T04:51:27.095Z,3.50
2022-07-29T04:53:53.473Z,3.83
2022-07-29T04:56:19.945Z,4.10
2022-07-29T04:58:46.546Z,4.10
2022-07-29T05:01:15.339Z,4.22
2022-07-29T05:03:41.979Z,4.13
2022-07-29T05:06:08.423Z,4.53
2022-07-29T05:08:34.862Z,4.32
2022-07-29T05:11:11.752Z,4.20
2022-07-29T05:13:46.047Z,4.75
2022-07-29T05:16:14.206Z,4.35
2022-07-29T05:18:40.899Z,4.47
2022-07-29T05:21:07.300Z,4.47
2022-07-29T05:23:34.099Z,4.80
2022-07-29T05:26:00.580Z,5.40
2022-07-29T05:28:27.038Z,5.07
2022-07-29T05:30:53.595Z,5.25
2022-07-29T05:33:35.670Z,4.47
2022-07-29T05:36:06.328Z,4.70
2022-07-29T05:38:32.809Z,5.00
2022-07-29T05:40:59.917Z,5.00
2022-07-29T05:43:27.282Z,5.22
2022-07-29T05:45:55.203Z,6.05
2022-07-29T05:48:21.792Z,5.35
2022-07-29T05:50:48.283Z,4.32
2022-07-29T05:53:19.421Z,4.70
2022-07-29T05:55:47.622Z,4.22
2022-07-29T05:58:13.990Z,3.72
2022-07-29T06:00:40.838Z,3.50
2022-07-29T06:03:07.355Z,4.00
2022-07-29T06:05:33.859Z,3.90
2022-07-29T06:08:00.403Z,4.50
2022-07-29T06:10:27.738Z,4.03
2022-07-29T06:12:54.270Z,4.30
2022-07-29T06:15:20.696Z,4.20
2022-07-29T06:18:00.481Z,4.30
2022-07-29T06:20:30.702Z,5.47
2022-07-29T06:22:57.758Z,6.63
2022-07-29T06:25:24.208Z,5.75
2022-07-29T06:27:50.663Z,5.07
2022-07-29T06:30:17.010Z,6.22
2022-07-29T06:32:43.592Z,6.60
2022-07-29T06:35:37.739Z,6.32
2022-07-29T06:37:56.686Z,6.68
2022-07-29T06:40:44.802Z,8.80
2022-07-29T06:43:11.721Z,9.13
2022-07-29T06:45:39.482Z,8.50
2022-07-29T06:48:06.053Z,7.18
2022-07-29T06:50:32.623Z,4.88
2022-07-29T06:52:59.020Z,5.10
2022-07-29T06:55:25.561Z,4.43
2022-07-29T06:57:52.271Z,4.70
2022-07-29T07:00:18.739Z,4.68
2022-07-29T07:02:45.260Z,4.05
2022-07-29T07:05:13.846Z,3.63
2022-07-29T07:07:40.269Z,4.28
2022-07-29T07:10:06.830Z,5.15
2022-07-29T07:12:33.218Z,4.38
2022-07-29T07:14:59.618Z,3.63
2022-07-29T07:17:26.075Z,4.28
2022-07-29T07:19:52.442Z,4.53
2022-07-29T07:22:18.810Z,3.90
2022-07-29T07:24:45.198Z,3.60
2022-07-29T07:27:11.738Z,3.67
2022-07-29T07:29:41.929Z,3.50
2022-07-29T07:32:10.972Z,3.50
2022-07-29T07:34:38.723Z,3.45
2022-07-29T07:37:05.207Z,2.95
2022-07-29T07:39:31.706Z,3.50
2022-07-29T07:41:58.094Z,3.22
2022-07-29T07:44:24.602Z,2.85
2022-07-29T07:46:51.039Z,3.30
2022-07-29T07:49:17.521Z,3.33
2022-07-29T07:51:44.007Z,2.88
2022-07-29T07:54:17.617Z,3.17
2022-07-29T07:56:44.460Z,2.65
2022-07-29T07:59:10.825Z,3.13
2022-07-29T08:01:55.265Z,3.33
2022-07-29T08:04:27.277Z,3.30
2022-07-29T08:06:55.235Z,2.65
2022-07-29T08:09:29.389Z,2.75
2022-07-29T08:11:57.353Z,3.10
2022-07-29T08:14:23.774Z,3.30
2022-07-29T08:16:50.222Z,3.55
2022-07-29T08:19:16.798Z,3.20
2022-07-29T08:21:43.221Z,3.60
2022-07-29T08:24:28.242Z,2.72
2022-07-29T08:26:54.706Z,2.63
2022-07-29T08:29:21.085Z,2.67
2022-07-29T08:31:47.535Z,2.80
2022-07-29T08:34:14.024Z,3.00
2022-07-29T08:36:41.410Z,3.75
2022-07-29T08:39:07.923Z,2.90
2022-07-29T08:41:34.494Z,2.92
2022-07-29T08:44:00.921Z,3.00
2022-07-29T08:46:27.481Z,3.60
2022-07-29T08:48:54.190Z,3.70
2022-07-29T08:51:21.366Z,4.00
2022-07-29T08:53:49.278Z,3.08
2022-07-29T08:56:19.308Z,2.95
2022-07-29T08:58:47.980Z,4.05
2022-07-29T09:01:21.798Z,3.65
2022-07-29T09:03:49.720Z,3.60
2022-07-29T09:06:17.924Z,3.58
2022-07-29T09:08:45.206Z,3.80
2022-07-29T09:11:12.777Z,3.83
2022-07-29T09:13:39.147Z,3.20
2022-07-29T09:16:09.158Z,3.13
2022-07-29T09:18:37.494Z,3.33
2022-07-29T09:21:23.212Z,2.67
2022-07-29T09:24:07.546Z,3.25
2022-07-29T09:26:35.485Z,2.58
2022-07-29T09:29:08.143Z,2.50
2022-07-29T09:31:35.819Z,2.85
2022-07-29T09:34:02.524Z,4.10
2022-07-29T09:36:28.942Z,3.13
2022-07-29T09:38:59.815Z,2.35
2022-07-29T09:41:26.671Z,2.10
2022-07-29T09:44:00.191Z,1.85
2022-07-29T09:46:26.676Z,2.33
2022-07-29T09:49:13.612Z,4.05
2022-07-29T09:51:40.327Z,2.17
2022-07-29T09:54:23.029Z,2.63
2022-07-29T09:56:49.538Z,2.05
2022-07-29T09:59:16.254Z,2.10
2022-07-29T10:01:42.794Z,2.33
2022-07-29T10:04:09.292Z,2.28
2022-07-29T10:06:35.643Z,2.78
2022-07-29T10:09:09.358Z,2.25
2022-07-29T10:11:48.435Z,1.60
2022-07-29T10:14:16.363Z,1.75
2022-07-29T10:16:43.571Z,2.13
2022-07-29T10:19:09.997Z,2.17
2022-07-29T10:21:38.716Z,1.90
2022-07-29T10:24:05.758Z,1.95
2022-07-29T10:26:32.270Z,1.83
2022-07-29T10:28:58.737Z,5.13
2022-07-29T10:31:29.601Z,5.38
2022-07-29T10:34:03.838Z,2.20
2022-07-29T10:36:36.530Z,2.28
2022-07-29T10:39:03.476Z,1.52
2022-07-29T10:41:43.777Z,1.50
2022-07-29T10:44:17.074Z,1.75
2022-07-29T10:46:44.365Z,1.70
2022-07-29T10:49:18.192Z,1.40
2022-07-29T10:52:03.615Z,1.85
2022-07-29T10:54:35.696Z,1.60
2022-07-29T10:57:53.544Z,1.58
2022-07-29T11:00:19.487Z,2.00
2022-07-29T11:02:50.055Z,1.58
2022-07-29T11:05:20.439Z,1.80
2022-07-29T11:08:05.618Z,2.05
2022-07-29T11:10:32.959Z,2.00
2022-07-29T11:12:59.441Z,1.63
2022-07-29T11:15:28.625Z,1.50
2022-07-29T11:17:59.396Z,1.67
2022-07-29T11:20:45.788Z,1.42
2022-07-29T11:23:27.857Z,1.75
2022-07-29T11:26:23.079Z,1.73
2022-07-29T11:28:55.680Z,1.48
2022-07-29T11:31:39.226Z,1.60
2022-07-29T11:34:18.110Z,1.83
2022-07-29T11:37:06.139Z,1.70
2022-07-29T11:39:36.848Z,2.00
2022-07-29T11:48:28.913Z,1.42
2022-07-29T11:50:53.156Z,1.50
2022-07-29T11:53:19.594Z,1.70
2022-07-29T11:55:50.996Z,1.88
2022-07-29T11:58:35.573Z,2.15
2022-07-29T12:01:05.520Z,1.95
2022-07-29T12:03:35.285Z,2.05
2022-07-29T12:06:03.166Z,1.63
2022-07-29T12:07:03.208Z,1.40
2022-07-29T12:08:30.454Z,1.80
2022-07-29T12:10:57.023Z,1.67
2022-07-29T12:13:36.979Z,1.60
2022-07-29T12:16:05.210Z,1.40
2022-07-29T12:18:31.964Z,1.40
2022-07-29T12:20:59.367Z,1.73
2022-07-29T12:23:34.859Z,1.45
2022-07-29T12:26:04.329Z,1.20
2022-07-29T12:28:30.713Z,1.52
2022-07-29T12:30:57.387Z,1.88
2022-07-29T12:33:28.451Z,1.45
2022-07-29T12:36:17.552Z,1.40
2022-07-29T12:38:43.437Z,1.27
2022-07-29T12:41:09.883Z,1.80
2022-07-29T12:43:36.351Z,1.02
2022-07-29T12:46:13.763Z,1.38
2022-07-29T12:49:00.643Z,1.33
2022-07-29T12:51:32.271Z,1.33
2022-07-29T12:54:04.500Z,1.20
2022-07-29T12:56:42.920Z,1.45
2022-07-29T12:59:17.342Z,1.00
2022-07-29T13:01:44.381Z,1.90
2022-07-29T13:04:10.859Z,2.03
2022-07-29T13:06:39.926Z,1.40
2022-07-29T13:09:18.342Z,1.52
2022-07-29T13:11:48.672Z,1.40
2022-07-29T13:14:30.051Z,1.73
2022-07-29T13:17:05.550Z,1.35
2022-07-29T13:19:35.157Z,1.38
2022-07-29T13:22:01.598Z,1.67
2022-07-29T13:24:28.021Z,1.58
2022-07-29T13:26:56.632Z,1.30
2022-07-29T13:29:23.014Z,1.58
2022-07-29T13:31:49.845Z,1.50
2022-07-29T13:34:16.258Z,1.50
2022-07-29T13:36:42.628Z,1.30
2022-07-29T13:39:08.995Z,1.23
2022-07-29T13:41:35.390Z,1.08
2022-07-29T13:44:01.943Z,1.80
2022-07-29T13:46:28.416Z,1.75
2022-07-29T13:48:55.181Z,1.60
2022-07-29T13:51:21.861Z,1.38
2022-07-29T13:53:48.285Z,1.65
2022-07-29T13:56:14.756Z,1.40
2022-07-29T13:58:41.178Z,1.17
2022-07-29T14:01:07.722Z,1.10
2022-07-29T14:03:34.204Z,1.30
2022-07-29T14:06:01.378Z,1.80
2022-07-29T14:08:28.042Z,1.27
2022-07-29T14:10:54.470Z,1.55
2022-07-29T14:13:25.275Z,1.30
2022-07-29T14:15:52.870Z,1.58
2022-07-29T14:18:19.276Z,1.38
2022-07-29T14:20:45.614Z,1.95
2022-07-29T14:23:12.010Z,1.40
2022-07-29T14:25:40.755Z,1.20
2022-07-29T14:28:08.441Z,1.20
2022-07-29T14:30:34.994Z,1.60
2022-07-29T14:33:01.384Z,1.40
2022-07-29T14:35:27.758Z,1.25
2022-07-29T14:37:54.253Z,1.40
2022-07-29T14:40:20.632Z,1.80
2022-07-29T14:42:47.036Z,1.80
2022-07-29T14:45:13.494Z,1.35
2022-07-29T14:47:40.357Z,1.30
2022-07-29T14:50:07.598Z,1.45
2022-07-29T14:52:34.035Z,1.42
2022-07-29T14:55:00.422Z,1.23
2022-07-29T14:57:26.866Z,1.20
2022-07-29T14:59:53.421Z,1.20
2022-07-29T15:02:19.991Z,1.20
2022-07-29T15:04:48.716Z,1.67
2022-07-29T15:07:16.406Z,1.52
2022-07-29T15:09:49.987Z,1.70
2022-07-29T15:12:16.750Z,1.63
2022-07-29T15:14:43.162Z,1.73
2022-07-29T15:17:09.593Z,1.73
2022-07-29T15:19:36.102Z,1.67
2022-07-29T15:22:03.066Z,1.83
2022-07-29T15:24:29.817Z,1.20
2022-07-29T15:26:56.232Z,1.63
2022-07-29T15:29:22.969Z,1.33
2022-07-29T15:31:49.363Z,1.40
2022-07-29T15:34:16.085Z,1.25
2022-07-29T15:36:52.068Z,1.20
2022-07-29T15:39:19.919Z,1.40
2022-07-29T15:41:46.646Z,1.70
2022-07-29T15:44:13.085Z,1.30
2022-07-29T15:46:58.366Z,1.50
2022-07-29T15:49:31.356Z,1.25
2022-07-29T15:52:16.153Z,1.58
2022-07-29T15:54:42.534Z,1.98
2022-07-29T15:57:09.778Z,1.90
2022-07-29T15:59:36.195Z,2.65
2022-07-29T16:02:02.582Z,2.17
2022-07-29T16:04:29.021Z,2.70
2022-07-29T16:06:55.683Z,2.47
2022-07-29T16:09:22.455Z,1.40
2022-07-29T16:11:53.408Z,2.20
2022-07-29T16:14:20.056Z,2.17
2022-07-29T16:16:46.538Z,1.65
2022-07-29T16:19:13.080Z,2.05
2022-07-29T16:21:39.505Z,1.58
2022-07-29T16:24:06.497Z,1.70
2022-07-29T16:26:33.294Z,2.13
2022-07-29T16:28:59.942Z,2.25
2022-07-29T16:31:26.845Z,2.25
2022-07-29T16:33:55.668Z,2.38
2022-07-29T16:36:23.049Z,1.60
2022-07-29T16:38:49.937Z,2.20
2022-07-29T16:41:16.587Z,1.98
2022-07-29T16:43:43.058Z,1.98
2022-07-29T16:46:13.995Z,2.00
2022-07-29T16:48:45.621Z,2.10
2022-07-29T16:51:14.360Z,1.52
2022-07-29T16:53:41.246Z,1.90
2022-07-29T16:56:11.179Z,2.50
2022-07-29T16:58:43.527Z,2.47
2022-07-29T17:01:10.845Z,2.85
2022-07-29T17:04:00.280Z,2.47
2022-07-29T17:06:27.401Z,2.03
2022-07-29T17:08:53.867Z,1.92
2022-07-29T17:11:20.303Z,1.90
2022-07-29T17:13:46.731Z,1.95
2022-07-29T17:16:13.204Z,1.98
2022-07-29T17:18:39.666Z,2.35
2022-07-29T17:21:06.086Z,1.90
2022-07-29T17:23:32.464Z,2.00
2022-07-29T17:25:58.989Z,2.33
2022-07-29T17:28:25.349Z,1.85
2022-07-29T17:30:51.832Z,2.38
2022-07-29T17:33:18.289Z,2.10
2022-07-29T17:36:03.646Z,1.95
2022-07-29T17:38:30.105Z,1.67
2022-07-29T17:40:56.593Z,1.90
2022-07-29T17:43:22.966Z,2.38
2022-07-29T17:45:50.878Z,2.20
2022-07-29T17:48:17.814Z,1.77
2022-07-29T17:50:44.434Z,2.13
2022-07-29T17:53:16.068Z,2.20
2022-07-29T17:55:45.324Z,1.80
2022-07-29T17:58:12.393Z,1.75
2022-07-29T18:00:39.046Z,1.92
2022-07-29T18:03:07.127Z,2.20
2022-07-29T18:05:33.855Z,2.28
2022-07-29T18:08:02.235Z,2.00
2022-07-29T18:10:28.797Z,1.88
2022-07-29T18:12:55.239Z,1.88
2022-07-29T18:15:21.729Z,2.20
2022-07-29T18:17:56.769Z,1.83
2022-07-29T18:20:25.984Z,2.10
2022-07-29T18:22:52.515Z,1.85
2022-07-29T18:25:19.982Z,2.33
2022-07-29T18:27:46.451Z,2.10
2022-07-29T18:30:14.883Z,2.22
2022-07-29T18:32:50.548Z,1.88
2022-07-29T18:35:27.242Z,1.50
2022-07-29T18:38:00.834Z,1.92
2022-07-29T18:40:29.586Z,2.13
2022-07-29T18:42:56.220Z,2.03
2022-07-29T18:45:22.685Z,2.05
2022-07-29T18:47:54.890Z,2.15
2022-07-29T18:50:28.592Z,2.25
2022-07-29T18:52:58.232Z,2.00
2022-07-29T18:55:25.505Z,2.00
2022-07-29T18:57:55.277Z,1.67
2022-07-29T19:00:23.805Z,1.83
2022-07-29T19:02:50.467Z,1.77
2022-07-29T19:05:17.041Z,2.03
2022-07-29T19:07:43.555Z,2.28
2022-07-29T19:10:10.033Z,1.90
2022-07-29T19:12:36.583Z,2.20
2022-07-29T19:15:03.528Z,2.00
2022-07-29T19:17:29.905Z,2.28
2022-07-29T19:19:56.277Z,1.90
2022-07-29T19:22:23.169Z,2.10
2022-07-29T19:24:50.770Z,1.65
2022-07-29T19:27:17.409Z,1.70
2022-07-29T19:29:43.809Z,2.00
2022-07-29T19:32:10.260Z,1.90
2022-07-29T19:34:37.398Z,2.00
2022-07-29T19:37:04.021Z,1.88
2022-07-29T19:39:33.331Z,1.52
2022-07-29T19:42:03.425Z,1.55
2022-07-29T19:44:30.138Z,1.92
2022-07-29T19:46:56.989Z,1.55
2022-07-29T19:49:23.681Z,1.90
2022-07-29T19:51:53.336Z,1.88
2022-07-29T19:54:20.666Z,2.55
2022-07-29T19:56:50.474Z,1.80
2022-07-29T19:59:17.364Z,1.83
2022-07-29T20:01:50.484Z,2.10
2022-07-29T20:04:17.006Z,2.40
2022-07-29T20:06:43.398Z,1.80
2022-07-29T20:09:20.403Z,1.42
2022-07-29T20:11:47.109Z,2.03
2022-07-29T20:14:13.542Z,1.58
2022-07-29T20:16:40.994Z,1.65
2022-07-29T20:19:07.444Z,1.90
2022-07-29T20:21:33.926Z,2.30
2022-07-29T20:24:02.313Z,2.00
2022-07-29T20:26:28.756Z,1.92
2022-07-29T20:28:55.279Z,2.45
2022-07-29T20:31:21.913Z,2.70
2022-07-29T20:33:48.810Z,2.75
2022-07-29T20:36:15.274Z,2.72
2022-07-29T20:38:41.769Z,1.88
2022-07-29T20:41:08.245Z,2.25
2022-07-29T20:43:36.107Z,2.03
2022-07-29T20:46:05.905Z,2.00
2022-07-29T20:48:32.600Z,2.00
2022-07-29T20:50:59.136Z,2.30
2022-07-29T20:53:25.594Z,1.90
2022-07-29T20:55:52.147Z,1.70
2022-07-29T20:58:19.677Z,2.03
2022-07-29T21:00:46.244Z,2.10
2022-07-29T21:03:12.777Z,3.67
2022-07-29T21:05:43.822Z,3.47
2022-07-29T21:08:10.789Z,2.40
2022-07-29T21:10:37.555Z,2.38
2022-07-29T21:13:03.991Z,2.50
2022-07-29T21:15:30.616Z,2.33
2022-07-29T21:18:05.818Z,2.55
2022-07-29T21:20:32.207Z,2.35
2022-07-29T21:22:58.713Z,3.05
2022-07-29T21:25:26.900Z,4.25
2022-07-29T21:28:11.992Z,3.58
2022-07-29T21:30:38.478Z,4.97
2022-07-29T21:33:05.012Z,6.72
2022-07-29T21:35:58.964Z,5.28
2022-07-29T21:38:18.851Z,4.20
2022-07-29T21:40:46.460Z,3.97
2022-07-29T21:43:12.962Z,3.05
2022-07-29T21:45:39.581Z,2.42
2022-07-29T21:48:06.196Z,2.30
2022-07-29T21:50:33.329Z,1.90
2022-07-29T21:52:59.933Z,2.15
2022-07-29T21:55:27.017Z,2.30
2022-07-29T21:57:54.548Z,1.85
2022-07-29T22:00:21.273Z,2.78
2022-07-29T22:02:48.412Z,1.88
2022-07-29T22:05:14.883Z,1.80
2022-07-29T22:07:56.113Z,1.90
2022-07-29T22:10:24.425Z,1.90
2022-07-29T22:12:51.905Z,2.00
2022-07-29T22:15:18.869Z,2.15
2022-07-29T22:17:45.323Z,2.15
2022-07-29T22:20:12.037Z,1.90
2022-07-29T22:22:38.763Z,1.90
2022-07-29T22:25:05.758Z,2.20
2022-07-29T22:27:32.165Z,2.70
2022-07-29T22:29:58.605Z,2.08
2022-07-29T22:32:25.072Z,2.65
2022-07-29T22:34:51.497Z,2.35
2022-07-29T22:37:18.053Z,1.88
2022-07-29T22:39:44.537Z,3.25
2022-07-29T22:42:11.001Z,3.40
2022-07-29T22:44:38.428Z,3.28
2022-07-29T22:47:04.885Z,3.60
2022-07-29T22:49:31.298Z,3.92
2022-07-29T22:51:57.833Z,4.50
2022-07-29T22:54:24.253Z,4.72
2022-07-29T22:56:51.713Z,3.72
2022-07-29T22:59:18.350Z,4.43
2022-07-29T23:01:44.886Z,4.10
2022-07-29T23:04:11.514Z,4.20
2022-07-29T23:06:38.077Z,3.40
2022-07-29T23:09:04.526Z,3.38
2022-07-29T23:11:31.742Z,4.05
2022-07-29T23:13:58.178Z,4.18
2022-07-29T23:16:26.695Z,4.07
2022-07-29T23:18:53.805Z,4.35
2022-07-29T23:21:21.292Z,5.72
2022-07-29T23:23:48.427Z,4.95
2022-07-29T23:26:16.761Z,4.55
2022-07-29T23:28:44.297Z,4.45
2022-07-29T23:31:11.068Z,4.43
2022-07-29T23:33:37.533Z,4.13
2022-07-29T23:36:04.101Z,4.35
2022-07-29T23:38:30.498Z,4.30
2022-07-29T23:40:58.508Z,4.28
2022-07-29T23:43:25.078Z,3.97
2022-07-29T23:45:51.660Z,3.88
2022-07-29T23:48:20.732Z,5.30
2022-07-29T23:50:47.346Z,6.07
2022-07-29T23:53:13.931Z,6.47
2022-07-29T23:55:40.314Z,6.10
2022-07-29T23:58:06.765Z,6.00
